Grizzly Air Cargo 5134


PANC
Ted Stevens Anchorage International Airport
Anchorage, Alaska, US
PABR
Wiley Post-Will Rogers Memorial Airport
Barrow, Alaska, US

Activity Log

Date Flight Route Aircraft Duration
11/16/2019 GRZ5134 TED TKA Q6 BRW B738 1h 40m
09/16/2019 GRZ534 TED TKA Q6 BRW B722 1h 42m
09/11/2019 GRZ534 TED TKA Q6 BRW B722 1h 40m
09/07/2019 GRZ534 TED TKA Q6 BRW B722 1h 27m
08/30/2019 GRZ534 TED TKA Q6 BRW B722 1h 28m
07/29/2019 GRZ534 TED TKA Q6 BRW B722 1h 44m
07/02/2019 GRZ534 TED TKA Q6 BRW B722 2h 00m
06/30/2019 GRZ534 TED TKA Q6 BRW B722 1h 52m
04/15/2019 GRZ534 ANC J115 FAI J515 BRW B722 1h 54m

Route Details

Aircraft Information
Primary: Boeing 727-200F
Backup: Boeing 737-800BCF
Route Data
Distance: 726nm
Sched. Duration: 1h 50m
Avg. Duration: 1h 47m (-2m)
Times Flown: 9
Recm'd Route: TED TKA Q6 BRW
Planned Altitude: 34,000ft
Origin Wx: PANC 030153Z 16014G26KT 10SM -RA FEW055 BKN080 BKN200 13/04 A2967 RMK AO2 PK WND 17026/0149 RAE23B48 SLP049 P0000 T01280044
Dest. Wx: PABR 030153Z 07019KT 10SM OVC003 01/M01 A2990 RMK AO2 SLP124 T00061011
Notes:

Financial History
Total Freight: 271,977lbs
Average Load: 30,220lbs/flt
Fuel Used: 126,820lbs
Avg. Fuel Used: 14,091lbs/flt
Fuel Expense: $157,776
Avg. Fuel Expense: $17,531
Avg. Fuel Cost: $1.25/lbs
Total Gross Income: $588,816
Pilot Pay: $2,071
Total Expenses: $64,060
Total Revenue: $363,272
Average Revenue: $65,424.02